createdAt,value
2018-05-10T00:04:07.492Z,3.31
2018-05-10T00:15:08.122Z,3.31
2018-05-10T00:26:09.281Z,3.31
2018-05-10T00:37:11.658Z,3.31
2018-05-10T00:48:13.220Z,3.31
2018-05-10T00:59:15.711Z,3.31
2018-05-10T01:10:16.839Z,3.30
2018-05-10T01:21:18.666Z,3.30
2018-05-10T01:32:20.467Z,3.30
2018-05-10T01:43:22.247Z,3.30
2018-05-10T01:54:23.373Z,3.30
2018-05-10T02:05:25.142Z,3.30
2018-05-10T02:16:25.842Z,3.30
2018-05-10T02:27:28.072Z,3.30
2018-05-10T02:38:29.508Z,3.29
2018-05-10T02:49:32.139Z,3.29
2018-05-10T03:00:34.177Z,3.29
2018-05-10T03:11:35.844Z,3.29
2018-05-10T03:22:37.463Z,3.29
2018-05-10T03:33:39.756Z,3.29
2018-05-10T03:44:41.746Z,3.28
2018-05-10T03:55:44.173Z,3.28
2018-05-10T04:06:46.418Z,3.29
2018-05-10T04:17:48.126Z,3.29
2018-05-10T04:28:51.777Z,3.29
2018-05-10T04:39:53.415Z,3.30
2018-05-10T04:50:54.321Z,3.31
2018-05-10T05:01:54.777Z,3.32
2018-05-10T05:12:56.933Z,3.33
2018-05-10T05:23:58.577Z,3.32
2018-05-10T05:35:00.251Z,3.32
2018-05-10T05:46:00.273Z,3.33
2018-05-10T05:57:00.693Z,3.32
2018-05-10T06:07:58.956Z,3.32
2018-05-10T06:19:01.054Z,3.33
2018-05-10T06:30:01.047Z,3.34
2018-05-10T06:41:01.360Z,3.34
2018-05-10T06:51:55.837Z,3.35
2018-05-10T07:02:54.387Z,3.36
2018-05-10T07:13:54.929Z,3.37
2018-05-10T07:24:54.471Z,3.37
2018-05-10T07:35:54.094Z,3.38
2018-05-10T07:46:53.747Z,3.39
2018-05-10T07:57:51.740Z,3.39
2018-05-10T08:08:52.853Z,3.40
2018-05-10T08:19:54.959Z,3.41
2018-05-10T08:30:55.557Z,3.42
2018-05-10T08:41:58.529Z,3.43
2018-05-10T08:52:40.386Z,3.42
2018-05-10T09:03:21.388Z,3.40
2018-05-10T09:14:04.509Z,3.45
2018-05-10T09:24:41.835Z,3.43
2018-05-10T09:35:25.191Z,3.42
2018-05-10T09:46:09.087Z,3.41
2018-05-10T09:56:46.058Z,3.41
2018-05-10T10:07:29.348Z,3.40
2018-05-10T10:18:12.226Z,3.40
2018-05-10T10:28:54.380Z,3.46
2018-05-10T10:39:37.829Z,3.43
2018-05-10T10:50:20.935Z,3.42
2018-05-10T11:01:05.406Z,3.42
2018-05-10T11:11:48.878Z,3.41
2018-05-10T11:22:33.660Z,3.41
2018-05-10T11:33:16.674Z,3.41
2018-05-10T11:44:00.709Z,3.41
2018-05-10T11:54:42.618Z,3.40
2018-05-10T12:05:21.987Z,3.40
2018-05-10T12:16:04.981Z,3.41
2018-05-10T12:26:43.588Z,3.40
2018-05-10T12:37:30.911Z,3.40
2018-05-10T12:48:09.380Z,3.40
2018-05-10T12:58:56.334Z,3.43
2018-05-10T13:09:42.047Z,3.43
2018-05-10T13:20:28.488Z,3.42
2018-05-10T13:31:09.444Z,3.42
2018-05-10T13:41:51.124Z,3.41
2018-05-10T13:52:35.181Z,3.41
2018-05-10T14:03:21.381Z,3.41
2018-05-10T14:14:02.134Z,3.41
2018-05-10T14:24:44.653Z,3.40
2018-05-10T14:35:22.859Z,3.40
2018-05-10T14:46:05.891Z,3.43
2018-05-10T14:56:51.924Z,3.43
2018-05-10T15:07:34.553Z,3.42
2018-05-10T15:18:15.805Z,3.42
2018-05-10T15:29:16.928Z,3.41
2018-05-10T15:40:16.106Z,3.41
2018-05-10T15:50:57.157Z,3.44
2018-05-10T16:01:39.814Z,3.45
2018-05-10T16:12:22.864Z,3.45
2018-05-10T16:23:23.631Z,3.46
2018-05-10T16:34:24.111Z,3.46
2018-05-10T16:45:25.573Z,3.46
2018-05-10T16:56:06.134Z,3.46
2018-05-10T17:07:08.248Z,3.46
2018-05-10T17:18:08.817Z,3.45
2018-05-10T17:29:09.811Z,3.45
2018-05-10T17:40:08.660Z,3.44
2018-05-10T17:51:09.126Z,3.44
2018-05-10T18:02:10.268Z,3.43
2018-05-10T18:13:05.427Z,3.43
2018-05-10T18:24:05.128Z,3.42
2018-05-10T18:35:02.621Z,3.42
2018-05-10T18:45:54.487Z,3.42
2018-05-10T18:56:52.711Z,3.41
2018-05-10T19:07:51.698Z,3.41
2018-05-10T19:18:52.193Z,3.40
2018-05-10T19:29:50.665Z,3.40
2018-05-10T19:40:50.110Z,3.40
2018-05-10T19:51:48.984Z,3.40
2018-05-10T20:02:48.952Z,3.40
2018-05-10T20:13:50.448Z,3.39
2018-05-10T20:24:47.781Z,3.39
2018-05-10T20:35:47.025Z,3.39
2018-05-10T20:46:46.484Z,3.39
2018-05-10T20:57:45.238Z,3.39
2018-05-10T21:08:45.372Z,3.39
2018-05-10T21:19:46.344Z,3.38
2018-05-10T21:30:47.456Z,3.38
2018-05-10T21:41:47.433Z,3.37
2018-05-10T21:52:47.726Z,3.37
2018-05-10T22:03:46.951Z,3.37
2018-05-10T22:14:44.515Z,3.37
2018-05-10T22:25:45.300Z,3.37
2018-05-10T22:36:43.065Z,3.36
2018-05-10T22:47:43.846Z,3.36
2018-05-10T22:58:45.609Z,3.36
2018-05-10T23:09:47.796Z,3.36
2018-05-10T23:20:49.572Z,3.36
2018-05-10T23:31:50.146Z,3.36
2018-05-10T23:42:51.485Z,3.35
2018-05-10T23:53:52.870Z,3.34
